createdAt,value
2023-02-09T00:01:13.967Z,100.00
2023-02-09T00:03:43.845Z,100.00
2023-02-09T00:06:20.347Z,100.00
2023-02-09T00:08:49.546Z,100.00
2023-02-09T00:11:21.959Z,100.00
2023-02-09T00:13:49.588Z,100.00
2023-02-09T00:16:18.621Z,100.00
2023-02-09T00:18:47.631Z,100.00
2023-02-09T00:21:18.058Z,100.00
2023-02-09T00:23:47.116Z,100.00
2023-02-09T00:26:16.301Z,100.00
2023-02-09T00:28:45.751Z,100.00
2023-02-09T00:31:15.002Z,100.00
2023-02-09T00:33:44.316Z,100.00
2023-02-09T00:36:14.572Z,100.00
2023-02-09T00:38:45.208Z,100.00
2023-02-09T00:41:15.318Z,100.00
2023-02-09T00:43:44.193Z,100.00
2023-02-09T00:46:13.294Z,100.00
2023-02-09T00:48:42.391Z,100.00
2023-02-09T00:51:11.452Z,100.00
2023-02-09T00:53:40.650Z,100.00
2023-02-09T00:56:11.095Z,100.00
2023-02-09T00:58:40.583Z,100.00
2023-02-09T01:01:13.552Z,100.00
2023-02-09T01:03:42.824Z,100.00
2023-02-09T01:06:12.086Z,100.00
2023-02-09T01:08:41.240Z,100.00
2023-02-09T01:11:12.701Z,100.00
2023-02-09T01:13:41.492Z,100.00
2023-02-09T01:16:11.508Z,100.00
2023-02-09T01:18:43.112Z,100.00
2023-02-09T01:21:12.589Z,100.00
2023-02-09T01:23:41.915Z,100.00
2023-02-09T01:26:13.101Z,100.00
2023-02-09T01:28:42.085Z,100.00
2023-02-09T01:31:22.328Z,100.00
2023-02-09T01:33:52.940Z,100.00
2023-02-09T01:36:22.383Z,100.00
2023-02-09T01:38:52.367Z,100.00
2023-02-09T01:41:22.942Z,100.00
2023-02-09T01:43:53.528Z,100.00
2023-02-09T01:46:22.996Z,100.00
2023-02-09T01:48:55.637Z,100.00
2023-02-09T01:51:25.161Z,100.00
2023-02-09T01:53:54.298Z,100.00
2023-02-09T01:56:30.381Z,100.00
2023-02-09T01:58:59.749Z,100.00
2023-02-09T02:01:29.118Z,100.00
2023-02-09T02:03:58.277Z,100.00
2023-02-09T02:06:27.721Z,100.00
2023-02-09T02:08:58.723Z,100.00
2023-02-09T02:11:29.935Z,100.00
2023-02-09T02:13:58.802Z,100.00
2023-02-09T02:16:41.512Z,100.00
2023-02-09T02:19:43.022Z,100.00
2023-02-09T02:22:42.558Z,100.00
2023-02-09T02:26:01.210Z,100.00
2023-02-09T02:28:44.506Z,100.00
2023-02-09T02:31:46.947Z,100.00
2023-02-09T02:34:22.102Z,100.00
2023-02-09T02:36:57.322Z,100.00
2023-02-09T02:39:32.407Z,100.00
2023-02-09T02:42:21.592Z,100.00
2023-02-09T02:44:57.393Z,100.00
2023-02-09T02:47:28.465Z,100.00
2023-02-09T02:50:00.324Z,100.00
2023-02-09T02:52:30.942Z,100.00
2023-02-09T02:55:05.885Z,100.00
2023-02-09T02:57:38.169Z,100.00
2023-02-09T03:00:10.643Z,100.00
2023-02-09T03:02:42.017Z,100.00
2023-02-09T03:05:13.232Z,100.00
2023-02-09T03:07:42.031Z,100.00
2023-02-09T03:10:26.669Z,100.00
2023-02-09T03:13:08.092Z,100.00
2023-02-09T03:15:45.817Z,100.00
2023-02-09T03:18:22.617Z,100.00
2023-02-09T03:20:56.624Z,100.00
2023-02-09T03:23:32.184Z,100.00
2023-02-09T03:26:06.911Z,100.00
2023-02-09T03:28:38.501Z,100.00
2023-02-09T03:31:08.454Z,100.00
2023-02-09T03:33:38.080Z,100.00
2023-02-09T03:36:11.665Z,100.00
2023-02-09T03:38:40.880Z,100.00
2023-02-09T03:41:09.864Z,100.00
2023-02-09T03:43:55.997Z,100.00
2023-02-09T03:46:25.236Z,100.00
2023-02-09T03:48:54.356Z,100.00
2023-02-09T03:51:24.822Z,100.00
2023-02-09T03:53:54.120Z,100.00
2023-02-09T03:56:25.007Z,100.00
2023-02-09T03:58:53.729Z,100.00
2023-02-09T04:01:22.769Z,100.00
2023-02-09T04:03:51.948Z,100.00
2023-02-09T04:06:21.041Z,100.00
2023-02-09T04:08:51.502Z,100.00
2023-02-09T04:11:22.620Z,100.00
2023-02-09T04:13:52.175Z,100.00
2023-02-09T04:16:21.364Z,100.00
2023-02-09T04:18:51.737Z,100.00
2023-02-09T04:21:23.247Z,100.00
2023-02-09T04:23:56.518Z,100.00
2023-02-09T04:26:25.697Z,100.00
2023-02-09T04:28:54.344Z,100.00
2023-02-09T04:31:26.108Z,100.00
2023-02-09T04:33:55.411Z,100.00
2023-02-09T04:36:24.503Z,100.00
2023-02-09T04:38:53.592Z,100.00
2023-02-09T04:41:24.101Z,100.00
2023-02-09T04:43:52.894Z,100.00
2023-02-09T04:46:21.885Z,100.00
2023-02-09T04:48:51.004Z,100.00
2023-02-09T04:51:20.274Z,100.00
2023-02-09T04:53:49.556Z,100.00
2023-02-09T04:56:18.906Z,100.00
2023-02-09T04:59:17.839Z,100.00
2023-02-09T05:01:46.946Z,100.00
2023-02-09T05:04:17.160Z,100.00
2023-02-09T05:06:46.288Z,100.00
2023-02-09T05:09:15.481Z,100.00
2023-02-09T05:11:44.925Z,100.00
2023-02-09T05:14:15.585Z,100.00
2023-02-09T05:16:44.367Z,100.00
2023-02-09T05:19:13.980Z,100.00
2023-02-09T05:21:43.346Z,100.00
2023-02-09T05:24:12.487Z,100.00
2023-02-09T05:26:41.522Z,100.00
2023-02-09T05:29:10.511Z,100.00
2023-02-09T05:31:41.093Z,100.00
2023-02-09T05:34:10.520Z,100.00
2023-02-09T05:36:39.662Z,100.00
2023-02-09T05:39:08.784Z,100.00
2023-02-09T05:41:55.253Z,100.00
2023-02-09T05:44:24.410Z,100.00
2023-02-09T05:46:54.646Z,100.00
2023-02-09T05:49:23.681Z,100.00
2023-02-09T05:51:53.744Z,100.00
2023-02-09T05:54:23.006Z,100.00
2023-02-09T05:56:52.370Z,100.00
2023-02-09T05:59:22.190Z,100.00
2023-02-09T06:01:50.908Z,100.00
2023-02-09T06:04:22.121Z,100.00
2023-02-09T06:06:51.613Z,100.00
2023-02-09T06:09:21.217Z,100.00
2023-02-09T06:11:50.879Z,100.00
2023-02-09T06:14:20.445Z,100.00
2023-02-09T06:16:49.216Z,100.00
2023-02-09T06:19:21.410Z,100.00
2023-02-09T06:21:50.639Z,100.00
2023-02-09T06:24:19.776Z,100.00
2023-02-09T06:26:48.755Z,100.00
2023-02-09T06:29:18.936Z,100.00
2023-02-09T06:31:47.632Z,100.00
2023-02-09T06:34:17.137Z,100.00
2023-02-09T06:36:47.920Z,100.00
2023-02-09T06:39:17.494Z,100.00
2023-02-09T06:41:46.621Z,100.00
2023-02-09T06:44:15.798Z,100.00
2023-02-09T06:46:45.235Z,100.00
2023-02-09T06:49:14.436Z,100.00
2023-02-09T06:51:43.938Z,100.00
2023-02-09T06:54:14.764Z,100.00
2023-02-09T06:56:44.076Z,100.00
2023-02-09T06:59:13.473Z,100.00
2023-02-09T07:01:42.623Z,100.00
2023-02-09T07:04:11.883Z,100.00
2023-02-09T07:06:41.325Z,100.00
2023-02-09T07:09:10.655Z,100.00
2023-02-09T07:11:42.126Z,100.00
2023-02-09T07:14:11.394Z,100.00
2023-02-09T07:16:40.314Z,100.00
2023-02-09T07:19:09.616Z,100.00
2023-02-09T07:21:38.907Z,100.00
2023-02-09T07:24:08.415Z,100.00
2023-02-09T07:26:37.811Z,100.00
2023-02-09T07:29:08.514Z,100.00
2023-02-09T07:31:37.795Z,100.00
2023-02-09T07:34:09.810Z,100.00
2023-02-09T07:36:39.066Z,100.00
2023-02-09T07:39:08.574Z,98.42
2023-02-09T07:41:39.305Z,95.08
2023-02-09T07:44:10.605Z,90.89
2023-02-09T07:46:39.643Z,84.63
2023-02-09T07:49:09.046Z,88.58
2023-02-09T07:51:38.312Z,91.64
2023-02-09T07:54:08.674Z,95.46
2023-02-09T07:56:39.737Z,89.23
2023-02-09T07:59:13.216Z,92.75
2023-02-09T08:01:42.145Z,96.96
2023-02-09T08:04:11.588Z,91.50
2023-02-09T08:06:45.326Z,100.00
2023-02-09T08:09:16.708Z,97.61
2023-02-09T08:11:48.812Z,98.46
2023-02-09T08:14:24.069Z,88.69
2023-02-09T08:17:16.134Z,93.21
2023-02-09T08:19:46.090Z,94.58
2023-02-09T08:22:17.357Z,88.53
2023-02-09T08:24:46.663Z,83.20
2023-02-09T08:27:15.859Z,87.21
2023-02-09T08:29:48.629Z,93.03
2023-02-09T08:32:18.747Z,88.46
2023-02-09T08:34:48.111Z,84.21
2023-02-09T08:37:17.300Z,80.90
2023-02-09T08:39:46.548Z,69.19
2023-02-09T08:42:15.778Z,74.55
2023-02-09T08:44:46.975Z,65.04
2023-02-09T08:47:16.131Z,74.59
2023-02-09T08:49:44.895Z,73.94
2023-02-09T08:52:15.487Z,77.56
2023-02-09T08:54:44.742Z,79.93
2023-02-09T08:57:13.902Z,79.02
2023-02-09T08:59:43.345Z,65.89
2023-02-09T09:02:13.862Z,70.67
2023-02-09T09:04:42.726Z,73.82
2023-02-09T09:07:12.031Z,63.97
2023-02-09T09:09:41.266Z,63.44
2023-02-09T09:12:10.647Z,58.20
2023-02-09T09:14:40.590Z,48.88
2023-02-09T09:17:09.790Z,48.06
2023-02-09T09:19:40.666Z,50.24
2023-02-09T09:22:09.748Z,45.61
2023-02-09T09:24:41.920Z,47.71
2023-02-09T09:27:12.546Z,45.73
2023-02-09T09:29:41.798Z,45.63
2023-02-09T09:32:13.974Z,44.47
2023-02-09T09:34:44.809Z,41.59
2023-02-09T09:37:14.645Z,42.51
2023-02-09T09:39:47.170Z,42.45
2023-02-09T09:42:24.179Z,39.50
2023-02-09T09:44:53.818Z,41.91
2023-02-09T09:47:27.904Z,41.80
2023-02-09T09:49:59.030Z,37.06
2023-02-09T09:52:32.167Z,38.76
2023-02-09T09:55:02.783Z,34.29
2023-02-09T09:57:33.012Z,34.33
2023-02-09T10:00:01.843Z,30.52
2023-02-09T10:02:35.183Z,35.75
2023-02-09T10:05:15.870Z,39.89
2023-02-09T10:07:50.877Z,39.54
2023-02-09T10:10:25.360Z,35.04
2023-02-09T10:12:55.121Z,33.71
2023-02-09T10:15:28.516Z,32.21
2023-02-09T10:17:57.983Z,37.24
2023-02-09T10:20:44.300Z,39.27
2023-02-09T10:23:26.213Z,37.28
2023-02-09T10:26:03.829Z,36.80
2023-02-09T10:28:37.218Z,39.82
2023-02-09T10:31:12.937Z,41.90
2023-02-09T10:33:44.820Z,43.95
2023-02-09T10:36:33.804Z,38.99
2023-02-09T10:39:21.360Z,34.34
2023-02-09T10:41:52.439Z,34.08
2023-02-09T10:44:24.349Z,32.15
2023-02-09T10:47:11.008Z,33.14
2023-02-09T10:49:41.194Z,33.47
2023-02-09T10:52:19.908Z,35.15
2023-02-09T10:54:51.520Z,36.11
2023-02-09T10:57:26.649Z,34.86
2023-02-09T10:59:58.327Z,37.99
2023-02-09T11:02:36.485Z,40.08
2023-02-09T11:05:22.400Z,39.33
2023-02-09T11:07:56.364Z,42.65
2023-02-09T11:10:26.228Z,44.49
2023-02-09T11:12:55.302Z,45.75
2023-02-09T11:15:27.964Z,46.11
2023-02-09T11:18:00.750Z,44.17
2023-02-09T11:20:33.779Z,45.06
2023-02-09T11:23:24.738Z,40.87
2023-02-09T11:25:59.516Z,40.79
2023-02-09T11:29:08.889Z,43.23
2023-02-09T11:32:20.201Z,41.37
2023-02-09T11:35:39.516Z,41.50
2023-02-09T11:38:53.529Z,35.31
2023-02-09T11:42:22.686Z,31.95
2023-02-09T11:45:35.221Z,32.96
2023-02-09T11:48:46.847Z,35.29
2023-02-09T11:52:00.478Z,40.13
2023-02-09T11:55:24.713Z,40.69
2023-02-09T11:58:59.758Z,39.08
2023-02-09T12:02:23.680Z,36.91
2023-02-09T12:05:33.623Z,39.15
2023-02-09T12:08:52.153Z,41.31
2023-02-09T12:12:09.747Z,40.83
2023-02-09T12:15:21.848Z,41.55
2023-02-09T12:18:33.552Z,41.49
2023-02-09T12:21:43.068Z,38.80
2023-02-09T12:25:15.958Z,37.49
2023-02-09T12:28:45.791Z,37.95
2023-02-09T12:32:30.939Z,37.97
2023-02-09T12:35:41.163Z,37.33
2023-02-09T12:39:05.208Z,38.93
2023-02-09T12:42:29.484Z,37.88
2023-02-09T12:45:41.739Z,40.38
2023-02-09T12:48:53.244Z,41.83
2023-02-09T12:52:18.567Z,40.99
2023-02-09T12:55:28.741Z,39.45
2023-02-09T12:58:56.189Z,39.82
2023-02-09T13:02:27.865Z,39.46
2023-02-09T13:05:39.112Z,37.90
2023-02-09T13:08:50.591Z,36.95
2023-02-09T13:12:03.993Z,40.85
2023-02-09T13:15:15.671Z,40.91
2023-02-09T13:18:30.924Z,40.53
2023-02-09T13:21:49.851Z,39.99
2023-02-09T13:25:01.649Z,37.82
2023-02-09T13:28:17.043Z,39.58
2023-02-09T13:31:37.046Z,40.19
2023-02-09T13:34:50.044Z,41.14
2023-02-09T13:38:01.182Z,43.09
2023-02-09T13:40:53.403Z,41.77
2023-02-09T13:43:29.762Z,41.43
2023-02-09T13:46:00.090Z,41.12
2023-02-09T13:48:29.822Z,39.49
2023-02-09T13:51:01.922Z,39.67
2023-02-09T13:53:32.582Z,40.68
2023-02-09T13:56:02.116Z,40.10
2023-02-09T13:58:32.765Z,39.81
2023-02-09T14:01:06.207Z,38.59
2023-02-09T14:03:42.692Z,39.05
2023-02-09T14:06:24.222Z,40.71
2023-02-09T14:08:53.983Z,40.72
2023-02-09T14:11:41.399Z,41.60
2023-02-09T14:14:12.575Z,41.41
2023-02-09T14:16:53.035Z,40.51
2023-02-09T14:19:27.769Z,38.29
2023-02-09T14:21:58.473Z,39.23
2023-02-09T14:24:28.815Z,40.31
2023-02-09T14:27:04.919Z,40.76
2023-02-09T14:29:35.997Z,39.26
2023-02-09T14:32:32.426Z,40.42
2023-02-09T14:35:11.134Z,39.79
2023-02-09T14:37:46.243Z,39.63
2023-02-09T14:40:23.318Z,40.34
2023-02-09T14:43:02.222Z,39.87
2023-02-09T14:45:38.558Z,42.06
2023-02-09T14:48:19.941Z,41.74
2023-02-09T14:50:51.538Z,42.88
2023-02-09T14:53:23.345Z,44.50
2023-02-09T14:55:52.159Z,45.20
2023-02-09T14:58:23.560Z,46.48
2023-02-09T15:00:54.302Z,49.39
2023-02-09T15:03:23.729Z,49.85
2023-02-09T15:05:57.057Z,53.27
2023-02-09T15:08:28.952Z,54.10
2023-02-09T15:11:00.240Z,54.51
2023-02-09T15:13:30.491Z,53.70
2023-02-09T15:15:59.407Z,53.39
2023-02-09T15:18:28.878Z,54.48
2023-02-09T15:20:59.764Z,55.73
2023-02-09T15:23:30.549Z,54.06
2023-02-09T15:26:00.769Z,56.56
2023-02-09T15:28:32.297Z,58.10
2023-02-09T15:31:02.908Z,58.70
2023-02-09T15:33:32.303Z,58.75
2023-02-09T15:36:02.212Z,59.59
2023-02-09T15:38:34.378Z,59.21
2023-02-09T15:41:21.009Z,59.19
2023-02-09T15:44:07.292Z,58.93
2023-02-09T15:46:55.370Z,60.97
2023-02-09T15:49:25.185Z,61.80
2023-02-09T15:51:55.172Z,61.40
2023-02-09T15:54:30.456Z,61.60
2023-02-09T15:57:00.162Z,61.51
2023-02-09T15:59:29.343Z,63.26
2023-02-09T16:02:00.217Z,64.05
2023-02-09T16:04:29.394Z,63.51
2023-02-09T16:06:58.586Z,60.64
2023-02-09T16:09:30.998Z,59.17
2023-02-09T16:12:00.312Z,58.62
2023-02-09T16:14:31.823Z,61.40
2023-02-09T16:17:01.032Z,65.42
2023-02-09T16:19:29.890Z,62.28
2023-02-09T16:21:59.892Z,62.33
2023-02-09T16:24:32.091Z,61.33
2023-02-09T16:27:01.798Z,60.45
2023-02-09T16:29:30.867Z,60.47
2023-02-09T16:31:59.934Z,59.82
2023-02-09T16:34:30.872Z,61.18
2023-02-09T16:37:00.222Z,63.24
2023-02-09T16:39:33.955Z,64.21
2023-02-09T16:42:03.952Z,65.77
2023-02-09T16:44:35.251Z,66.35
2023-02-09T16:47:04.716Z,66.73
2023-02-09T16:49:36.889Z,68.67
2023-02-09T16:52:08.953Z,66.90
2023-02-09T16:54:43.978Z,67.89
2023-02-09T16:57:15.061Z,69.34
2023-02-09T16:59:44.379Z,71.27
2023-02-09T17:02:38.235Z,68.10
2023-02-09T17:05:18.710Z,71.25
2023-02-09T17:07:54.448Z,70.85
2023-02-09T17:10:28.533Z,69.42
2023-02-09T17:12:57.638Z,71.44
2023-02-09T17:15:31.524Z,71.87
2023-02-09T17:18:03.314Z,70.70
2023-02-09T17:20:37.758Z,71.85
2023-02-09T17:23:07.147Z,70.25
2023-02-09T17:25:38.349Z,68.93
2023-02-09T17:28:07.397Z,69.64
2023-02-09T17:30:36.475Z,75.22
2023-02-09T17:33:07.402Z,75.19
2023-02-09T17:38:31.213Z,78.27
2023-02-09T17:41:02.460Z,77.16
2023-02-09T17:43:32.954Z,77.29
2023-02-09T17:46:02.186Z,77.17
2023-02-09T17:48:31.380Z,78.51
2023-02-09T17:51:03.471Z,77.27
2023-02-09T17:53:35.649Z,75.07
2023-02-09T17:56:08.501Z,75.06
2023-02-09T17:58:37.232Z,76.61
2023-02-09T18:01:14.491Z,79.36
2023-02-09T18:03:44.121Z,80.00
2023-02-09T18:06:15.347Z,80.60
2023-02-09T18:08:44.448Z,79.39
2023-02-09T18:11:16.107Z,81.13
2023-02-09T18:13:45.393Z,77.40
2023-02-09T18:16:14.834Z,80.36
2023-02-09T18:18:45.112Z,78.85
2023-02-09T18:21:14.714Z,79.40
2023-02-09T18:23:43.908Z,78.56
2023-02-09T18:26:14.499Z,78.55
2023-02-09T18:28:43.718Z,79.18
2023-02-09T18:31:16.041Z,80.12
2023-02-09T18:33:45.375Z,77.35
2023-02-09T18:36:17.065Z,81.57
2023-02-09T18:38:47.262Z,81.87
2023-02-09T18:41:17.620Z,78.76
2023-02-09T18:43:47.712Z,78.25
2023-02-09T18:46:19.752Z,74.57
2023-02-09T18:48:48.935Z,78.69
2023-02-09T18:51:18.121Z,77.08
2023-02-09T18:53:47.358Z,81.60
2023-02-09T18:56:20.618Z,81.75
2023-02-09T18:58:50.634Z,82.04
2023-02-09T19:01:21.585Z,80.85
2023-02-09T19:03:54.389Z,81.59
2023-02-09T19:06:25.458Z,82.15
2023-02-09T19:08:54.701Z,82.19
2023-02-09T19:11:25.389Z,78.62
2023-02-09T19:14:11.903Z,81.52
2023-02-09T19:16:42.161Z,81.71
2023-02-09T19:19:13.475Z,79.00
2023-02-09T19:21:42.716Z,80.85
2023-02-09T19:24:12.040Z,81.31
2023-02-09T19:26:42.645Z,80.48
2023-02-09T19:29:12.041Z,81.64
2023-02-09T19:31:41.800Z,81.33
2023-02-09T19:34:11.606Z,76.67
2023-02-09T19:36:42.337Z,80.05
2023-02-09T19:39:13.069Z,81.72
2023-02-09T19:41:47.116Z,84.54
2023-02-09T19:44:16.926Z,82.04
2023-02-09T19:46:45.849Z,79.50
2023-02-09T19:49:16.769Z,77.46
2023-02-09T19:51:47.616Z,78.58
2023-02-09T19:54:16.935Z,79.09
2023-02-09T19:56:47.657Z,78.17
2023-02-09T19:59:17.687Z,79.94
2023-02-09T20:01:46.527Z,79.01
2023-02-09T20:04:15.867Z,80.31
2023-02-09T20:06:45.353Z,78.49
2023-02-09T20:09:16.588Z,76.95
2023-02-09T20:14:16.662Z,77.84
2023-02-09T20:16:45.347Z,82.68
2023-02-09T20:19:14.605Z,81.48
2023-02-09T20:21:43.790Z,80.47
2023-02-09T20:24:13.834Z,80.66
2023-02-09T20:26:44.522Z,78.93
2023-02-09T20:29:16.897Z,79.28
2023-02-09T20:31:45.873Z,77.13
2023-02-09T20:34:16.283Z,77.08
2023-02-09T20:36:48.170Z,73.47
2023-02-09T20:39:17.995Z,70.70
2023-02-09T20:42:02.226Z,68.69
2023-02-09T20:44:50.462Z,69.76
2023-02-09T20:47:19.850Z,68.20
2023-02-09T20:49:48.830Z,68.29
2023-02-09T20:52:18.024Z,69.18
2023-02-09T20:54:47.248Z,67.57
2023-02-09T20:57:16.624Z,64.21
2023-02-09T20:59:47.248Z,65.18
2023-02-09T21:02:16.610Z,66.45
2023-02-09T21:04:45.488Z,62.99
2023-02-09T21:07:14.940Z,59.83
2023-02-09T21:09:45.212Z,59.48
2023-02-09T21:12:14.730Z,58.33
2023-02-09T21:14:46.533Z,57.59
2023-02-09T21:17:17.164Z,60.07
2023-02-09T21:19:46.136Z,59.19
2023-02-09T21:22:16.818Z,58.01
2023-02-09T21:24:46.491Z,60.99
2023-02-09T21:27:16.129Z,61.08
2023-02-09T21:29:45.444Z,61.01
2023-02-09T21:32:14.543Z,61.39
2023-02-09T21:34:45.708Z,66.82
2023-02-09T21:37:15.218Z,67.52
2023-02-09T21:39:44.434Z,63.81
2023-02-09T21:42:30.771Z,62.95
2023-02-09T21:45:00.645Z,61.41
2023-02-09T21:47:31.055Z,60.14
2023-02-09T21:50:02.018Z,61.27
2023-02-09T21:52:31.725Z,63.51
2023-02-09T21:55:00.850Z,64.91
2023-02-09T21:57:29.925Z,66.23
2023-02-09T22:00:04.552Z,64.45
2023-02-09T22:02:34.028Z,61.84
2023-02-09T22:05:04.918Z,64.26
2023-02-09T22:07:34.602Z,64.81
2023-02-09T22:10:03.691Z,64.79
2023-02-09T22:12:34.296Z,63.69
2023-02-09T22:15:03.817Z,65.30
2023-02-09T22:17:32.895Z,65.73
2023-02-09T22:20:03.433Z,66.09
2023-02-09T22:22:32.220Z,66.05
2023-02-09T22:25:01.369Z,70.04
2023-02-09T22:27:30.497Z,71.17
2023-02-09T22:30:00.541Z,70.46
2023-02-09T22:32:29.745Z,66.63
2023-02-09T22:34:58.773Z,69.71
2023-02-09T22:37:29.084Z,65.74
2023-02-09T22:39:58.729Z,66.25
2023-02-09T22:42:27.965Z,66.39
2023-02-09T22:44:57.110Z,67.57
2023-02-09T22:47:26.188Z,69.35
2023-02-09T22:49:55.026Z,71.18
2023-02-09T22:52:24.400Z,70.77
2023-02-09T22:54:55.025Z,67.21
2023-02-09T22:57:25.208Z,66.38
2023-02-09T22:59:53.919Z,62.39
2023-02-09T23:02:22.980Z,62.58
2023-02-09T23:04:51.742Z,62.57
2023-02-09T23:07:20.866Z,64.63
2023-02-09T23:09:51.936Z,63.82
2023-02-09T23:12:22.554Z,64.12
2023-02-09T23:14:52.997Z,65.35
2023-02-09T23:17:23.104Z,62.74
2023-02-09T23:19:51.869Z,63.50
2023-02-09T23:22:21.031Z,65.15
2023-02-09T23:24:50.041Z,65.59
2023-02-09T23:27:19.521Z,67.00
2023-02-09T23:29:50.033Z,66.49
2023-02-09T23:32:19.435Z,65.08
2023-02-09T23:34:48.028Z,63.93
2023-02-09T23:37:19.089Z,64.19
2023-02-09T23:40:04.055Z,66.70
2023-02-09T23:42:33.216Z,65.22
2023-02-09T23:45:03.744Z,63.37
2023-02-09T23:47:32.888Z,63.14
2023-02-09T23:50:01.917Z,62.33
2023-02-09T23:52:30.607Z,64.39
2023-02-09T23:54:59.833Z,67.24
2023-02-09T23:57:30.188Z,65.67
2023-02-09T23:59:58.923Z,67.65
